sensor_id;sensor_type;location;lat;lon;timestamp;pressure;altitude;pressure_sealevel;temperature;humidity
15382;BME280;7789;51.364;12.358;2023-04-26T00:01:19;100293.31;;;8.05;70.70
15382;BME280;7789;51.364;12.358;2023-04-26T00:06:23;100295.38;;;8.00;72.44
15382;BME280;7789;51.364;12.358;2023-04-26T00:11:30;100296.78;;;7.93;72.13
15382;BME280;7789;51.364;12.358;2023-04-26T00:16:33;100294.03;;;7.83;73.02
15382;BME280;7789;51.364;12.358;2023-04-26T00:21:37;100294.47;;;7.77;73.04
15382;BME280;7789;51.364;12.358;2023-04-26T00:26:43;100299.66;;;7.77;73.43
15382;BME280;7789;51.364;12.358;2023-04-26T00:31:47;100302.06;;;7.80;74.30
15382;BME280;7789;51.364;12.358;2023-04-26T00:36:51;100301.91;;;7.82;73.36
15382;BME280;7789;51.364;12.358;2023-04-26T00:41:56;100312.22;;;7.83;73.78
15382;BME280;7789;51.364;12.358;2023-04-26T00:47:00;100313.19;;;7.82;74.46
15382;BME280;7789;51.364;12.358;2023-04-26T00:52:04;100313.41;;;7.79;73.52
15382;BME280;7789;51.364;12.358;2023-04-26T00:57:11;100316.41;;;7.73;73.41
15382;BME280;7789;51.364;12.358;2023-04-26T01:02:15;100316.03;;;7.67;74.74
15382;BME280;7789;51.364;12.358;2023-04-26T01:14:05;100337.22;;;7.50;73.95
15382;BME280;7789;51.364;12.358;2023-04-26T01:19:32;100335.66;;;7.35;74.48
15382;BME280;7789;51.364;12.358;2023-04-26T01:24:57;100333.06;;;7.22;75.55
15382;BME280;7789;51.364;12.358;2023-04-26T01:30:02;100336.22;;;7.15;75.93
15382;BME280;7789;51.364;12.358;2023-04-26T01:35:06;100330.69;;;7.07;76.15
15382;BME280;7789;51.364;12.358;2023-04-26T01:40:13;100331.31;;;6.98;77.43
15382;BME280;7789;51.364;12.358;2023-04-26T01:45:16;100330.19;;;6.90;77.68
15382;BME280;7789;51.364;12.358;2023-04-26T01:50:21;100335.88;;;6.82;77.12
15382;BME280;7789;51.364;12.358;2023-04-26T01:55:26;100330.28;;;6.76;77.81
15382;BME280;7789;51.364;12.358;2023-04-26T02:00:31;100333.38;;;6.68;78.17
15382;BME280;7789;51.364;12.358;2023-04-26T02:05:35;100334.69;;;6.61;78.27
15382;BME280;7789;51.364;12.358;2023-04-26T02:10:40;100333.44;;;6.54;79.48
15382;BME280;7789;51.364;12.358;2023-04-26T02:15:45;100339.88;;;6.49;79.03
15382;BME280;7789;51.364;12.358;2023-04-26T02:20:49;100344.53;;;6.44;79.93
15382;BME280;7789;51.364;12.358;2023-04-26T02:25:53;100343.38;;;6.35;80.43
15382;BME280;7789;51.364;12.358;2023-04-26T02:30:59;100338.56;;;6.29;80.76
15382;BME280;7789;51.364;12.358;2023-04-26T02:36:05;100345.81;;;6.24;81.32
15382;BME280;7789;51.364;12.358;2023-04-26T02:41:11;100346.22;;;6.18;81.41
15382;BME280;7789;51.364;12.358;2023-04-26T02:46:14;100337.16;;;6.11;81.90
15382;BME280;7789;51.364;12.358;2023-04-26T02:51:18;100331.56;;;6.05;82.56
15382;BME280;7789;51.364;12.358;2023-04-26T02:56:24;100330.28;;;5.98;83.18
15382;BME280;7789;51.364;12.358;2023-04-26T03:01:28;100344.56;;;5.91;83.00
15382;BME280;7789;51.364;12.358;2023-04-26T03:06:32;100349.31;;;5.84;83.74
15382;BME280;7789;51.364;12.358;2023-04-26T03:11:38;100347.84;;;5.80;84.42
15382;BME280;7789;51.364;12.358;2023-04-26T03:16:47;100343.84;;;5.75;84.76
15382;BME280;7789;51.364;12.358;2023-04-26T03:22:02;100352.81;;;5.69;84.38
15382;BME280;7789;51.364;12.358;2023-04-26T03:27:08;100354.16;;;5.62;85.02
15382;BME280;7789;51.364;12.358;2023-04-26T03:32:23;100357.00;;;5.58;85.04
15382;BME280;7789;51.364;12.358;2023-04-26T03:37:27;100359.97;;;5.52;85.19
15382;BME280;7789;51.364;12.358;2023-04-26T03:42:32;100361.94;;;5.48;85.58
15382;BME280;7789;51.364;12.358;2023-04-26T03:47:37;100356.94;;;5.45;85.27
15382;BME280;7789;51.364;12.358;2023-04-26T03:52:58;100363.31;;;5.40;85.18
15382;BME280;7789;51.364;12.358;2023-04-26T03:58:03;100369.59;;;5.36;85.53
15382;BME280;7789;51.364;12.358;2023-04-26T04:03:09;100370.72;;;5.32;85.49
15382;BME280;7789;51.364;12.358;2023-04-26T04:08:13;100371.63;;;5.31;85.85
15382;BME280;7789;51.364;12.358;2023-04-26T04:13:19;100370.72;;;5.32;86.04
15382;BME280;7789;51.364;12.358;2023-04-26T04:18:23;100376.63;;;5.34;85.76
15382;BME280;7789;51.364;12.358;2023-04-26T04:23:29;100372.19;;;5.36;85.97
15382;BME280;7789;51.364;12.358;2023-04-26T04:28:34;100375.34;;;5.41;86.05
15382;BME280;7789;51.364;12.358;2023-04-26T04:33:38;100380.16;;;5.47;85.80
15382;BME280;7789;51.364;12.358;2023-04-26T04:38:43;100389.25;;;5.54;85.99
15382;BME280;7789;51.364;12.358;2023-04-26T04:43:49;100393.84;;;5.63;85.34
15382;BME280;7789;51.364;12.358;2023-04-26T04:49:05;100399.94;;;5.76;85.53
15382;BME280;7789;51.364;12.358;2023-04-26T04:54:11;100400.25;;;5.85;84.39
15382;BME280;7789;51.364;12.358;2023-04-26T04:59:17;100402.25;;;5.94;84.37
15382;BME280;7789;51.364;12.358;2023-04-26T05:04:20;100405.88;;;6.06;84.13
15382;BME280;7789;51.364;12.358;2023-04-26T05:09:26;100409.91;;;6.24;84.02
15382;BME280;7789;51.364;12.358;2023-04-26T05:14:31;100409.44;;;6.44;83.48
15382;BME280;7789;51.364;12.358;2023-04-26T05:19:36;100413.81;;;6.82;83.15
15382;BME280;7789;51.364;12.358;2023-04-26T05:24:40;100406.47;;;8.82;75.59
15382;BME280;7789;51.364;12.358;2023-04-26T05:29:48;100397.81;;;9.93;70.25
15382;BME280;7789;51.364;12.358;2023-04-26T05:34:54;100403.72;;;10.91;68.60
15382;BME280;7789;51.364;12.358;2023-04-26T05:40:01;100401.09;;;11.82;66.53
15382;BME280;7789;51.364;12.358;2023-04-26T05:45:08;100404.16;;;12.93;63.48
15382;BME280;7789;51.364;12.358;2023-04-26T05:50:17;100400.47;;;14.14;59.63
15382;BME280;7789;51.364;12.358;2023-04-26T05:55:20;100407.28;;;15.03;57.52
15382;BME280;7789;51.364;12.358;2023-04-26T06:00:32;100413.00;;;15.93;53.22
15382;BME280;7789;51.364;12.358;2023-04-26T06:05:36;100436.25;;;18.06;49.24
15382;BME280;7789;51.364;12.358;2023-04-26T06:10:41;100432.59;;;20.01;45.42
15382;BME280;7789;51.364;12.358;2023-04-26T06:15:46;100430.50;;;21.72;40.58
15382;BME280;7789;51.364;12.358;2023-04-26T06:20:53;100431.44;;;22.86;37.30
15382;BME280;7789;51.364;12.358;2023-04-26T06:25:58;100424.25;;;23.90;35.54
15382;BME280;7789;51.364;12.358;2023-04-26T06:31:11;100431.59;;;24.95;32.36
15382;BME280;7789;51.364;12.358;2023-04-26T06:36:18;100428.22;;;25.37;32.67
15382;BME280;7789;51.364;12.358;2023-04-26T06:41:34;100436.66;;;25.59;31.43
15382;BME280;7789;51.364;12.358;2023-04-26T06:46:40;100435.16;;;26.41;30.12
15382;BME280;7789;51.364;12.358;2023-04-26T06:51:44;100438.19;;;26.63;29.29
15382;BME280;7789;51.364;12.358;2023-04-26T06:56:48;100436.09;;;27.35;27.31
15382;BME280;7789;51.364;12.358;2023-04-26T07:01:53;100448.06;;;26.80;27.48
15382;BME280;7789;51.364;12.358;2023-04-26T07:06:56;100441.75;;;28.53;26.39
15382;BME280;7789;51.364;12.358;2023-04-26T07:12:00;100425.13;;;27.71;26.09
15382;BME280;7789;51.364;12.358;2023-04-26T07:17:06;100432.66;;;26.75;27.02
15382;BME280;7789;51.364;12.358;2023-04-26T07:22:10;100430.66;;;27.76;26.41
15382;BME280;7789;51.364;12.358;2023-04-26T07:27:14;100420.06;;;26.76;26.62
15382;BME280;7789;51.364;12.358;2023-04-26T07:32:19;100419.69;;;24.04;28.78
15382;BME280;7789;51.364;12.358;2023-04-26T07:37:22;100438.00;;;24.57;28.15
15382;BME280;7789;51.364;12.358;2023-04-26T07:42:26;100441.56;;;26.40;27.06
15382;BME280;7789;51.364;12.358;2023-04-26T07:47:31;100426.09;;;23.96;28.75
15382;BME280;7789;51.364;12.358;2023-04-26T07:52:35;100429.00;;;23.75;28.95
15382;BME280;7789;51.364;12.358;2023-04-26T07:57:38;100436.81;;;25.46;27.80
15382;BME280;7789;51.364;12.358;2023-04-26T08:02:44;100432.00;;;25.30;27.31
15382;BME280;7789;51.364;12.358;2023-04-26T08:07:49;100433.47;;;24.95;28.10
15382;BME280;7789;51.364;12.358;2023-04-26T08:12:53;100435.13;;;23.95;28.64
15382;BME280;7789;51.364;12.358;2023-04-26T08:18:00;100439.31;;;22.47;29.35
15382;BME280;7789;51.364;12.358;2023-04-26T08:23:06;100437.38;;;21.88;29.53
15382;BME280;7789;51.364;12.358;2023-04-26T08:28:09;100439.38;;;22.20;30.36
15382;BME280;7789;51.364;12.358;2023-04-26T08:33:16;100433.50;;;21.63;30.66
15382;BME280;7789;51.364;12.358;2023-04-26T08:38:22;100436.47;;;20.84;31.18
15382;BME280;7789;51.364;12.358;2023-04-26T08:43:27;100439.19;;;20.34;32.09
15382;BME280;7789;51.364;12.358;2023-04-26T08:48:33;100440.00;;;19.77;32.58
15382;BME280;7789;51.364;12.358;2023-04-26T08:53:38;100434.91;;;20.04;32.08
15382;BME280;7789;51.364;12.358;2023-04-26T08:58:43;100432.91;;;20.42;31.86
15382;BME280;7789;51.364;12.358;2023-04-26T09:03:48;100432.69;;;19.27;33.74
15382;BME280;7789;51.364;12.358;2023-04-26T09:08:53;100440.44;;;18.62;33.44
15382;BME280;7789;51.364;12.358;2023-04-26T09:13:57;100452.03;;;17.84;33.86
15382;BME280;7789;51.364;12.358;2023-04-26T09:19:02;100452.09;;;17.36;35.18
15382;BME280;7789;51.364;12.358;2023-04-26T09:24:06;100449.75;;;17.33;35.90
15382;BME280;7789;51.364;12.358;2023-04-26T09:29:11;100447.94;;;17.25;35.91
15382;BME280;7789;51.364;12.358;2023-04-26T09:34:17;100445.13;;;17.19;35.54
15382;BME280;7789;51.364;12.358;2023-04-26T09:39:31;100445.41;;;16.76;36.78
15382;BME280;7789;51.364;12.358;2023-04-26T09:44:36;100453.44;;;16.51;36.17
15382;BME280;7789;51.364;12.358;2023-04-26T09:49:45;100447.41;;;16.25;36.61
15382;BME280;7789;51.364;12.358;2023-04-26T09:54:51;100452.03;;;16.23;37.63
15382;BME280;7789;51.364;12.358;2023-04-26T09:59:54;100456.72;;;16.03;38.01
15382;BME280;7789;51.364;12.358;2023-04-26T10:05:00;100448.00;;;16.11;38.45
15382;BME280;7789;51.364;12.358;2023-04-26T10:10:09;100444.13;;;15.89;35.79
15382;BME280;7789;51.364;12.358;2023-04-26T10:15:14;100448.94;;;15.68;37.07
15382;BME280;7789;51.364;12.358;2023-04-26T10:20:20;100448.81;;;15.44;37.67
15382;BME280;7789;51.364;12.358;2023-04-26T10:25:33;100443.38;;;15.28;39.13
15382;BME280;7789;51.364;12.358;2023-04-26T10:30:55;100444.44;;;15.61;39.00
15382;BME280;7789;51.364;12.358;2023-04-26T10:36:08;100440.47;;;15.82;36.59
15382;BME280;7789;51.364;12.358;2023-04-26T10:41:42;100440.81;;;15.87;36.32
15382;BME280;7789;51.364;12.358;2023-04-26T10:46:49;100438.09;;;15.71;35.75
15382;BME280;7789;51.364;12.358;2023-04-26T10:52:11;100441.91;;;15.51;36.96
15382;BME280;7789;51.364;12.358;2023-04-26T10:57:14;100455.66;;;15.20;37.90
15382;BME280;7789;51.364;12.358;2023-04-26T11:02:43;100442.66;;;15.01;37.73
15382;BME280;7789;51.364;12.358;2023-04-26T11:08:02;100451.91;;;14.87;37.52
15382;BME280;7789;51.364;12.358;2023-04-26T11:13:06;100437.63;;;15.07;38.01
15382;BME280;7789;51.364;12.358;2023-04-26T11:18:10;100436.78;;;15.07;37.99
15382;BME280;7789;51.364;12.358;2023-04-26T11:23:17;100435.34;;;15.12;38.99
15382;BME280;7789;51.364;12.358;2023-04-26T11:28:22;100438.13;;;15.11;38.33
15382;BME280;7789;51.364;12.358;2023-04-26T11:33:26;100444.41;;;14.92;38.08
15382;BME280;7789;51.364;12.358;2023-04-26T11:38:31;100439.41;;;14.55;39.15
15382;BME280;7789;51.364;12.358;2023-04-26T11:43:35;100446.97;;;14.40;39.34
15382;BME280;7789;51.364;12.358;2023-04-26T11:48:40;100445.94;;;14.33;39.11
15382;BME280;7789;51.364;12.358;2023-04-26T11:53:45;100441.75;;;14.58;38.74
15382;BME280;7789;51.364;12.358;2023-04-26T11:58:50;100437.69;;;14.81;39.10
15382;BME280;7789;51.364;12.358;2023-04-26T12:03:56;100436.56;;;15.00;38.70
15382;BME280;7789;51.364;12.358;2023-04-26T12:09:02;100438.00;;;15.12;38.82
15382;BME280;7789;51.364;12.358;2023-04-26T12:14:07;100443.97;;;15.22;38.78
15382;BME280;7789;51.364;12.358;2023-04-26T12:19:12;100434.81;;;15.26;38.81
15382;BME280;7789;51.364;12.358;2023-04-26T12:24:27;100444.69;;;15.24;37.92
15382;BME280;7789;51.364;12.358;2023-04-26T12:29:34;100434.06;;;15.16;38.82
15382;BME280;7789;51.364;12.358;2023-04-26T12:34:37;100441.75;;;15.10;39.65
15382;BME280;7789;51.364;12.358;2023-04-26T12:39:43;100435.63;;;15.27;39.40
15382;BME280;7789;51.364;12.358;2023-04-26T12:44:48;100432.19;;;15.26;38.51
15382;BME280;7789;51.364;12.358;2023-04-26T12:49:52;100428.13;;;15.14;38.60
15382;BME280;7789;51.364;12.358;2023-04-26T12:54:59;100433.41;;;14.97;37.67
15382;BME280;7789;51.364;12.358;2023-04-26T13:00:04;100437.91;;;14.70;38.32
15382;BME280;7789;51.364;12.358;2023-04-26T13:05:09;100435.06;;;14.63;37.36
15382;BME280;7789;51.364;12.358;2023-04-26T13:10:17;100435.69;;;14.75;37.20
15382;BME280;7789;51.364;12.358;2023-04-26T13:15:22;100432.16;;;14.66;36.89
15382;BME280;7789;51.364;12.358;2023-04-26T13:20:29;100444.22;;;14.59;37.50
15382;BME280;7789;51.364;12.358;2023-04-26T13:25:35;100445.63;;;14.36;37.42
15382;BME280;7789;51.364;12.358;2023-04-26T13:30:39;100447.34;;;14.28;37.45
15382;BME280;7789;51.364;12.358;2023-04-26T13:35:45;100453.63;;;14.17;38.04
15382;BME280;7789;51.364;12.358;2023-04-26T13:40:52;100450.63;;;13.93;38.10
15382;BME280;7789;51.364;12.358;2023-04-26T13:45:56;100452.25;;;13.77;38.76
15382;BME280;7789;51.364;12.358;2023-04-26T13:51:01;100458.06;;;13.71;38.81
15382;BME280;7789;51.364;12.358;2023-04-26T13:56:08;100447.41;;;13.72;39.57
15382;BME280;7789;51.364;12.358;2023-04-26T14:01:13;100455.56;;;13.79;40.53
15382;BME280;7789;51.364;12.358;2023-04-26T14:06:17;100453.56;;;13.90;39.83
15382;BME280;7789;51.364;12.358;2023-04-26T14:11:23;100461.13;;;14.03;40.42
15382;BME280;7789;51.364;12.358;2023-04-26T14:16:27;100465.84;;;13.99;39.61
15382;BME280;7789;51.364;12.358;2023-04-26T14:21:31;100459.19;;;14.05;40.07
15382;BME280;7789;51.364;12.358;2023-04-26T14:26:37;100455.28;;;14.09;40.67
15382;BME280;7789;51.364;12.358;2023-04-26T14:31:41;100453.94;;;14.05;41.36
15382;BME280;7789;51.364;12.358;2023-04-26T14:36:44;100463.59;;;14.04;41.11
15382;BME280;7789;51.364;12.358;2023-04-26T14:41:49;100468.03;;;14.04;40.64
15382;BME280;7789;51.364;12.358;2023-04-26T14:46:55;100472.38;;;13.86;40.10
15382;BME280;7789;51.364;12.358;2023-04-26T14:52:00;100464.78;;;13.83;40.84
15382;BME280;7789;51.364;12.358;2023-04-26T14:57:06;100476.00;;;13.85;41.22
15382;BME280;7789;51.364;12.358;2023-04-26T15:02:12;100466.91;;;13.79;41.92
15382;BME280;7789;51.364;12.358;2023-04-26T15:07:17;100472.59;;;13.65;42.68
15382;BME280;7789;51.364;12.358;2023-04-26T15:12:34;100471.94;;;13.63;42.11
15382;BME280;7789;51.364;12.358;2023-04-26T15:17:40;100475.25;;;13.56;42.42
15382;BME280;7789;51.364;12.358;2023-04-26T15:22:44;100475.53;;;13.43;42.15
15382;BME280;7789;51.364;12.358;2023-04-26T15:27:49;100476.38;;;13.44;41.99
15382;BME280;7789;51.364;12.358;2023-04-26T15:32:53;100476.50;;;13.52;42.19
15382;BME280;7789;51.364;12.358;2023-04-26T15:37:57;100473.59;;;13.55;41.89
15382;BME280;7789;51.364;12.358;2023-04-26T15:43:03;100470.25;;;13.53;42.78
15382;BME280;7789;51.364;12.358;2023-04-26T15:48:07;100473.63;;;13.45;42.77
15382;BME280;7789;51.364;12.358;2023-04-26T15:53:10;100475.84;;;13.31;43.63
15382;BME280;7789;51.364;12.358;2023-04-26T15:58:15;100479.59;;;13.28;43.01
15382;BME280;7789;51.364;12.358;2023-04-26T16:03:19;100481.94;;;13.22;43.47
15382;BME280;7789;51.364;12.358;2023-04-26T16:08:24;100481.78;;;13.14;42.70
15382;BME280;7789;51.364;12.358;2023-04-26T16:13:43;100478.75;;;12.99;43.94
15382;BME280;7789;51.364;12.358;2023-04-26T16:18:52;100484.13;;;12.98;43.67
15382;BME280;7789;51.364;12.358;2023-04-26T16:23:56;100481.91;;;12.93;44.70
15382;BME280;7789;51.364;12.358;2023-04-26T16:29:03;100483.81;;;12.91;44.48
15382;BME280;7789;51.364;12.358;2023-04-26T16:34:10;100476.22;;;12.88;44.57
15382;BME280;7789;51.364;12.358;2023-04-26T16:39:14;100472.63;;;12.80;44.61
15382;BME280;7789;51.364;12.358;2023-04-26T16:44:19;100474.44;;;12.70;44.66
15382;BME280;7789;51.364;12.358;2023-04-26T16:49:26;100476.91;;;12.62;45.21
15382;BME280;7789;51.364;12.358;2023-04-26T16:54:31;100479.22;;;12.56;44.85
15382;BME280;7789;51.364;12.358;2023-04-26T16:59:39;100476.88;;;12.53;44.98
15382;BME280;7789;51.364;12.358;2023-04-26T17:04:44;100476.88;;;12.53;44.53
15382;BME280;7789;51.364;12.358;2023-04-26T17:09:51;100477.72;;;12.44;45.59
15382;BME280;7789;51.364;12.358;2023-04-26T17:14:58;100481.69;;;12.38;44.91
15382;BME280;7789;51.364;12.358;2023-04-26T17:20:06;100487.31;;;12.34;44.81
15382;BME280;7789;51.364;12.358;2023-04-26T17:25:12;100487.59;;;12.31;45.33
15382;BME280;7789;51.364;12.358;2023-04-26T17:30:24;100486.22;;;12.27;44.92
15382;BME280;7789;51.364;12.358;2023-04-26T17:35:27;100486.44;;;12.24;45.59
15382;BME280;7789;51.364;12.358;2023-04-26T17:40:31;100486.41;;;12.14;45.08
15382;BME280;7789;51.364;12.358;2023-04-26T17:45:37;100491.59;;;11.95;47.02
15382;BME280;7789;51.364;12.358;2023-04-26T17:50:42;100504.75;;;11.75;46.62
15382;BME280;7789;51.364;12.358;2023-04-26T17:55:48;100500.69;;;11.50;46.34
15382;BME280;7789;51.364;12.358;2023-04-26T18:00:54;100507.69;;;11.29;48.00
15382;BME280;7789;51.364;12.358;2023-04-26T18:06:07;100506.03;;;11.08;48.64
15382;BME280;7789;51.364;12.358;2023-04-26T18:11:13;100509.41;;;10.88;48.26
15382;BME280;7789;51.364;12.358;2023-04-26T18:16:19;100514.19;;;10.72;49.47
15382;BME280;7789;51.364;12.358;2023-04-26T18:21:25;100521.75;;;10.55;49.08
15382;BME280;7789;51.364;12.358;2023-04-26T18:26:30;100518.66;;;10.39;50.19
15382;BME280;7789;51.364;12.358;2023-04-26T18:31:35;100519.75;;;10.25;50.43
15382;BME280;7789;51.364;12.358;2023-04-26T18:36:40;100525.47;;;10.08;51.64
15382;BME280;7789;51.364;12.358;2023-04-26T18:41:50;100526.69;;;9.92;51.35
15382;BME280;7789;51.364;12.358;2023-04-26T18:46:58;100528.72;;;9.77;52.10
15382;BME280;7789;51.364;12.358;2023-04-26T18:52:03;100535.81;;;9.64;52.68
15382;BME280;7789;51.364;12.358;2023-04-26T18:57:09;100538.59;;;9.50;52.93
15382;BME280;7789;51.364;12.358;2023-04-26T19:02:20;100547.38;;;9.38;53.91
15382;BME280;7789;51.364;12.358;2023-04-26T19:07:26;100549.06;;;9.27;54.43
15382;BME280;7789;51.364;12.358;2023-04-26T19:12:30;100550.72;;;9.17;54.83
15382;BME280;7789;51.364;12.358;2023-04-26T19:17:39;100549.72;;;9.07;54.92
15382;BME280;7789;51.364;12.358;2023-04-26T19:22:44;100557.50;;;8.96;55.38
15382;BME280;7789;51.364;12.358;2023-04-26T19:28:07;100568.47;;;8.89;56.62
15382;BME280;7789;51.364;12.358;2023-04-26T19:33:14;100571.94;;;8.77;56.23
15382;BME280;7789;51.364;12.358;2023-04-26T19:38:19;100563.94;;;8.67;57.00
15382;BME280;7789;51.364;12.358;2023-04-26T19:43:23;100572.22;;;8.61;57.43
15382;BME280;7789;51.364;12.358;2023-04-26T19:48:30;100578.91;;;8.53;57.99
15382;BME280;7789;51.364;12.358;2023-04-26T19:53:33;100572.75;;;8.41;57.71
15382;BME280;7789;51.364;12.358;2023-04-26T19:58:38;100582.97;;;8.32;58.61
15382;BME280;7789;51.364;12.358;2023-04-26T20:03:45;100580.91;;;8.24;59.43
15382;BME280;7789;51.364;12.358;2023-04-26T20:08:50;100582.22;;;8.17;59.61
15382;BME280;7789;51.364;12.358;2023-04-26T20:13:53;100580.16;;;8.10;60.27
15382;BME280;7789;51.364;12.358;2023-04-26T20:19:01;100581.63;;;8.01;62.16
15382;BME280;7789;51.364;12.358;2023-04-26T20:24:05;100587.47;;;7.92;61.44
15382;BME280;7789;51.364;12.358;2023-04-26T20:29:11;100584.31;;;7.87;61.96
15382;BME280;7789;51.364;12.358;2023-04-26T20:34:16;100583.06;;;7.80;62.67
15382;BME280;7789;51.364;12.358;2023-04-26T20:39:20;100584.31;;;7.75;62.42
15382;BME280;7789;51.364;12.358;2023-04-26T20:44:24;100583.88;;;7.68;63.03
15382;BME280;7789;51.364;12.358;2023-04-26T20:49:29;100585.13;;;7.63;63.60
15382;BME280;7789;51.364;12.358;2023-04-26T20:54:33;100586.47;;;7.56;63.54
15382;BME280;7789;51.364;12.358;2023-04-26T20:59:38;100591.16;;;7.51;63.78
15382;BME280;7789;51.364;12.358;2023-04-26T21:04:43;100589.78;;;7.45;64.22
15382;BME280;7789;51.364;12.358;2023-04-26T21:09:47;100591.00;;;7.40;64.60
15382;BME280;7789;51.364;12.358;2023-04-26T21:14:51;100600.03;;;7.34;64.60
15382;BME280;7789;51.364;12.358;2023-04-26T21:19:56;100598.78;;;7.28;65.51
15382;BME280;7789;51.364;12.358;2023-04-26T21:25:00;100599.91;;;7.24;65.46
15382;BME280;7789;51.364;12.358;2023-04-26T21:30:06;100602.81;;;7.19;65.52
15382;BME280;7789;51.364;12.358;2023-04-26T21:35:11;100593.53;;;7.15;65.20
15382;BME280;7789;51.364;12.358;2023-04-26T21:40:15;100601.63;;;7.11;64.67
15382;BME280;7789;51.364;12.358;2023-04-26T21:45:19;100602.75;;;7.07;65.25
15382;BME280;7789;51.364;12.358;2023-04-26T21:50:27;100603.03;;;7.02;65.14
15382;BME280;7789;51.364;12.358;2023-04-26T21:55:34;100606.78;;;6.98;65.05
15382;BME280;7789;51.364;12.358;2023-04-26T22:00:39;100608.00;;;6.93;65.17
15382;BME280;7789;51.364;12.358;2023-04-26T22:05:53;100611.69;;;6.89;66.30
15382;BME280;7789;51.364;12.358;2023-04-26T22:10:59;100615.41;;;6.85;65.93
15382;BME280;7789;51.364;12.358;2023-04-26T22:16:04;100621.75;;;6.81;65.74
15382;BME280;7789;51.364;12.358;2023-04-26T22:21:09;100627.22;;;6.76;66.03
15382;BME280;7789;51.364;12.358;2023-04-26T22:26:14;100620.53;;;6.72;66.37
15382;BME280;7789;51.364;12.358;2023-04-26T22:31:17;100622.59;;;6.67;66.41
15382;BME280;7789;51.364;12.358;2023-04-26T22:36:23;100621.09;;;6.63;66.60
15382;BME280;7789;51.364;12.358;2023-04-26T22:41:26;100620.47;;;6.60;66.53
15382;BME280;7789;51.364;12.358;2023-04-26T22:46:30;100629.47;;;6.54;67.16
15382;BME280;7789;51.364;12.358;2023-04-26T22:51:35;100628.94;;;6.49;67.06
15382;BME280;7789;51.364;12.358;2023-04-26T22:56:38;100636.06;;;6.46;67.65
15382;BME280;7789;51.364;12.358;2023-04-26T23:01:43;100632.91;;;6.41;67.93
15382;BME280;7789;51.364;12.358;2023-04-26T23:06:48;100626.41;;;6.34;67.69
15382;BME280;7789;51.364;12.358;2023-04-26T23:11:52;100624.94;;;6.30;67.98
15382;BME280;7789;51.364;12.358;2023-04-26T23:16:56;100632.97;;;6.25;68.42
15382;BME280;7789;51.364;12.358;2023-04-26T23:22:02;100631.59;;;6.20;68.81
15382;BME280;7789;51.364;12.358;2023-04-26T23:27:05;100636.16;;;6.16;68.82
15382;BME280;7789;51.364;12.358;2023-04-26T23:32:09;100642.53;;;6.11;69.12
15382;BME280;7789;51.364;12.358;2023-04-26T23:37:15;100635.00;;;6.06;69.48
15382;BME280;7789;51.364;12.358;2023-04-26T23:42:20;100638.78;;;6.01;69.37
15382;BME280;7789;51.364;12.358;2023-04-26T23:47:25;100644.16;;;5.98;69.62
15382;BME280;7789;51.364;12.358;2023-04-26T23:52:32;100638.44;;;5.93;70.61
15382;BME280;7789;51.364;12.358;2023-04-26T23:57:36;100642.13;;;5.89;70.52
